Blue Grotto — WDE6956 — position and weather

sailwx.info

Track history (hours):
 
Tides and Currents Weather Stations Pressure Air Temp Water Temp Dewpoint Dewpoint Depression Visibility Wind Speed Wind Dir Waves Ship Positions

Blue Grotto

Owner: Waterwood LLC, Newport, RI. More information available from US FCC via Universal Licensing System and Coast Guard Vessel Documentation Center.

Last reported at 2014-Oct-30 12:13 UTC. Time now 2014-Nov-01 11:18 UTC.
Position N 34°37' W 076°46'.

Length 19 m.

Type: Pleasure craft. MMSI: 367387040.

Date/timePositionNaut miles runAvg speedWind from/ knotsBaromVisibWave heightAir tempDewpointWater temp
2014-Oct-30 12:13N 34°37' W 076°46'6 8.8
2014-Oct-30 11:33N 34°41' W 076°40'3 3.2
2014-Oct-30 10:33N 34°43' W 076°42'0 0.0
2014-Oct-30 09:33N 34°43' W 076°42'0 0.0
2014-Oct-30 08:33N 34°43' W 076°42'0 0.0
2014-Oct-30 07:33N 34°43' W 076°42'0 0.0
2014-Oct-30 06:33N 34°43' W 076°42'0 0.0
2014-Oct-30 05:33N 34°43' W 076°42'0 0.0
2014-Oct-30 04:33N 34°43' W 076°42'0 0.0
2014-Oct-30 03:33N 34°43' W 076°42'0 0.0
2014-Oct-30 02:33N 34°43' W 076°42'0 0.0
2014-Oct-30 01:33N 34°43' W 076°42'0 0.0
2014-Oct-30 00:33N 34°43' W 076°42'0 0.0
2014-Oct-29 23:33N 34°43' W 076°42'0 0.0
2014-Oct-29 22:33N 34°43' W 076°42'0 0.0
2014-Oct-29 21:33N 34°43' W 076°42'0 0.0
2014-Oct-29 20:33N 34°43' W 076°42'0 0.0
2014-Oct-29 19:33N 34°43' W 076°42'0 0.0
2014-Oct-29 18:33N 34°43' W 076°42'0 0.0
2014-Oct-29 17:33N 34°43' W 076°42'0 0.0
2014-Oct-29 16:33N 34°43' W 076°42'0 0.0
2014-Oct-29 15:33N 34°43' W 076°42'0 0.0
2014-Oct-29 14:33N 34°43' W 076°42'0 0.0
2014-Oct-29 13:33N 34°43' W 076°42'0 0.0
2014-Oct-29 12:33N 34°43' W 076°42'0 0.0
2014-Oct-29 11:33N 34°43' W 076°42'0 0.0
2014-Oct-29 10:33N 34°43' W 076°42'0 0.0
2014-Oct-29 09:33N 34°43' W 076°42'0 0.0
2014-Oct-29 08:33N 34°43' W 076°42'0 0.0
2014-Oct-29 07:33N 34°43' W 076°42'0 0.0
2014-Oct-29 06:33N 34°43' W 076°42'0 0.0
2014-Oct-29 05:33N 34°43' W 076°42'0 0.0
2014-Oct-29 04:33N 34°43' W 076°42'0 0.0
2014-Oct-29 03:33N 34°43' W 076°42'0 0.0
2014-Oct-29 02:33N 34°43' W 076°42'0 0.0
2014-Oct-29 01:33N 34°43' W 076°42'0 0.0
2014-Oct-29 00:33N 34°43' W 076°42'0 0.0
2014-Oct-28 23:33N 34°43' W 076°42'0 0.0
2014-Oct-28 22:33N 34°43' W 076°42'0 0.0
2014-Oct-28 21:33N 34°43' W 076°42'0 0.0
2014-Oct-28 20:33N 34°43' W 076°42'0 0.0
2014-Oct-28 19:33N 34°43' W 076°42'0 0.0
2014-Oct-28 18:33N 34°43' W 076°42'0 0.0
2014-Oct-28 17:33N 34°43' W 076°42'0 0.0
2014-Oct-28 16:33N 34°43' W 076°42'0 0.0
2014-Oct-28 15:33N 34°43' W 076°42'0 0.0
2014-Oct-28 14:33N 34°43' W 076°42'0 0.0
2014-Oct-28 13:33N 34°43' W 076°42'0 0.0
2014-Oct-28 12:33N 34°43' W 076°42'0 0.0
2014-Oct-28 11:33N 34°43' W 076°42'0 0.0
2014-Oct-28 10:33N 34°43' W 076°42'0 0.0
2014-Oct-28 09:33N 34°43' W 076°42'0 0.0
2014-Oct-28 08:33N 34°43' W 076°42'0 0.0
2014-Oct-28 07:34N 34°43' W 076°42'0 0.0
2014-Oct-28 06:34N 34°43' W 076°42'0 0.0
2014-Oct-28 05:34N 34°43' W 076°42'0 0.0
2014-Oct-28 04:34N 34°43' W 076°42'0 0.0
2014-Oct-28 03:34N 34°43' W 076°42'0 0.0
2014-Oct-28 02:31N 34°43' W 076°42'0 0.0
2014-Oct-28 01:31N 34°43' W 076°42'0 0.0
2014-Oct-28 00:31N 34°43' W 076°42'0 0.0
2014-Oct-27 23:31N 34°43' W 076°42'0 0.0
2014-Oct-27 22:31N 34°43' W 076°42'0 0.0
2014-Oct-27 21:31N 34°43' W 076°42'0 0.0
2014-Oct-27 20:28N 34°43' W 076°42'0 0.0
2014-Oct-27 19:31N 34°43' W 076°42'3 3.4
2014-Oct-27 18:33N 34°46' W 076°41'8 7.2
2014-Oct-27 17:30N 34°54' W 076°41'21 6.2
2014-Oct-27 14:12N 35°14' W 076°35'  
Track history (hours):
 
Tides and Currents Weather Stations Pressure Air Temp Water Temp Dewpoint Dewpoint Depression Visibility Wind Speed Wind Dir Waves Ship Positions

Blue Grotto

Owner: Waterwood LLC, Newport, RI. More information available from US FCC via Universal Licensing System and Coast Guard Vessel Documentation Center.

Last reported at 2014-Oct-30 12:13 UTC. Time now 2014-Nov-01 11:18 UTC.
Position N 34°37' W 076°46'.

Length 19 m.

Type: Pleasure craft. MMSI: 367387040.

Date/timePositionNaut miles runAvg speedWind from/ knotsBaromVisibWave heightAir tempDewpointWater temp
2014-Oct-30 12:13N 34°37' W 076°46'6 8.8
2014-Oct-30 11:33N 34°41' W 076°40'3 3.2
2014-Oct-30 10:33N 34°43' W 076°42'0 0.0
2014-Oct-30 09:33N 34°43' W 076°42'0 0.0
2014-Oct-30 08:33N 34°43' W 076°42'0 0.0
2014-Oct-30 07:33N 34°43' W 076°42'0 0.0
2014-Oct-30 06:33N 34°43' W 076°42'0 0.0
2014-Oct-30 05:33N 34°43' W 076°42'0 0.0
2014-Oct-30 04:33N 34°43' W 076°42'0 0.0
2014-Oct-30 03:33N 34°43' W 076°42'0 0.0
2014-Oct-30 02:33N 34°43' W 076°42'0 0.0
2014-Oct-30 01:33N 34°43' W 076°42'0 0.0
2014-Oct-30 00:33N 34°43' W 076°42'0 0.0
2014-Oct-29 23:33N 34°43' W 076°42'0 0.0
2014-Oct-29 22:33N 34°43' W 076°42'0 0.0
2014-Oct-29 21:33N 34°43' W 076°42'0 0.0
2014-Oct-29 20:33N 34°43' W 076°42'0 0.0
2014-Oct-29 19:33N 34°43' W 076°42'0 0.0
2014-Oct-29 18:33N 34°43' W 076°42'0 0.0
2014-Oct-29 17:33N 34°43' W 076°42'0 0.0
2014-Oct-29 16:33N 34°43' W 076°42'0 0.0
2014-Oct-29 15:33N 34°43' W 076°42'0 0.0
2014-Oct-29 14:33N 34°43' W 076°42'0 0.0
2014-Oct-29 13:33N 34°43' W 076°42'0 0.0
2014-Oct-29 12:33N 34°43' W 076°42'0 0.0
2014-Oct-29 11:33N 34°43' W 076°42'0 0.0
2014-Oct-29 10:33N 34°43' W 076°42'0 0.0
2014-Oct-29 09:33N 34°43' W 076°42'0 0.0
2014-Oct-29 08:33N 34°43' W 076°42'0 0.0
2014-Oct-29 07:33N 34°43' W 076°42'0 0.0
2014-Oct-29 06:33N 34°43' W 076°42'0 0.0
2014-Oct-29 05:33N 34°43' W 076°42'0 0.0
2014-Oct-29 04:33N 34°43' W 076°42'0 0.0
2014-Oct-29 03:33N 34°43' W 076°42'0 0.0
2014-Oct-29 02:33N 34°43' W 076°42'0 0.0
2014-Oct-29 01:33N 34°43' W 076°42'0 0.0
2014-Oct-29 00:33N 34°43' W 076°42'0 0.0
2014-Oct-28 23:33N 34°43' W 076°42'0 0.0
2014-Oct-28 22:33N 34°43' W 076°42'0 0.0
2014-Oct-28 21:33N 34°43' W 076°42'0 0.0
2014-Oct-28 20:33N 34°43' W 076°42'0 0.0
2014-Oct-28 19:33N 34°43' W 076°42'0 0.0
2014-Oct-28 18:33N 34°43' W 076°42'0 0.0
2014-Oct-28 17:33N 34°43' W 076°42'0 0.0
2014-Oct-28 16:33N 34°43' W 076°42'0 0.0
2014-Oct-28 15:33N 34°43' W 076°42'0 0.0
2014-Oct-28 14:33N 34°43' W 076°42'0 0.0
2014-Oct-28 13:33N 34°43' W 076°42'0 0.0
2014-Oct-28 12:33N 34°43' W 076°42'0 0.0
2014-Oct-28 11:33N 34°43' W 076°42'0 0.0
2014-Oct-28 10:33N 34°43' W 076°42'0 0.0
2014-Oct-28 09:33N 34°43' W 076°42'0 0.0
2014-Oct-28 08:33N 34°43' W 076°42'0 0.0
2014-Oct-28 07:34N 34°43' W 076°42'0 0.0
2014-Oct-28 06:34N 34°43' W 076°42'0 0.0
2014-Oct-28 05:34N 34°43' W 076°42'0 0.0
2014-Oct-28 04:34N 34°43' W 076°42'0 0.0
2014-Oct-28 03:34N 34°43' W 076°42'0 0.0
2014-Oct-28 02:31N 34°43' W 076°42'0 0.0
2014-Oct-28 01:31N 34°43' W 076°42'0 0.0
2014-Oct-28 00:31N 34°43' W 076°42'0 0.0
2014-Oct-27 23:31N 34°43' W 076°42'0 0.0
2014-Oct-27 22:31N 34°43' W 076°42'0 0.0
2014-Oct-27 21:31N 34°43' W 076°42'0 0.0
2014-Oct-27 20:28N 34°43' W 076°42'0 0.0
2014-Oct-27 19:31N 34°43' W 076°42'3 3.4
2014-Oct-27 18:33N 34°46' W 076°41'8 7.2
2014-Oct-27 17:30N 34°54' W 076°41'21 6.2
2014-Oct-27 14:12N 35°14' W 076°35'  

Dump ship's entire track history